Weather at Dak Mil Airport [CLOSED]

Public forecast

Using degrees Celsius for public forecast. Weather courtesy of forecast.io.

Closest aviation weather report (METAR) to Dak Mil Airport

Closest report is Cam Ranh International Airport / Cam Ranh Air Base, 94.8 nm (175.5 km) ESE.

2024/07/20 13:00 (retrieved 39 minutes ago)

VVCR 201300Z VRB01KT 9999 FEW017 SCT060 28/25 Q1006 NOSIG

Closest aviation forecast (TAF) to Dak Mil Airport

Closest forecast is Cam Ranh International Airport / Cam Ranh Air Base, 94.8 nm (175.5 km) ESE.

2024/07/20 12:00 (retrieved 2 hours ago)

TAF VVCR 201100Z 2012/2112 28005KT 9999 SCT015 SCT060 BECMG 2104/2105 08010KT TEMPO 2107/2111 TS SCT013 FEW015CB SCT060